RJSR(METAR)
06/26 08:00
METAR RJSR 252300Z VRB02KT 9999 FEW010 SCT020 BKN040 20/18 Q1015 RMK
1ST010 3CU020 6CU040 A3000=
戻る
トップページへ戻る
IMOC Co,.Ltd.